Marston, North Carolina
Current Conditions -  °F | °C
As of 5:56 AM on Thursday 23 Oct 2014 (Local Time) from KHFF Reporting Station
Clear Clear  
Wind Chill: 39°   Ceiling: Unl
Heat Index: 42°   Visibility: 10mi
Dew Point: 41°   Wind: 5mph
Humidity: 95%   Direction: 320°NW
Pressure: 30.05"   Gusts: NA
Location:  34.99°N, 79.58°W
Report Text: KHFF 230956Z AUTO 32004KT 10SM CLR 06/05 A3005 RMK AO2 SLP179 T00570050
Loading
Personal Weather Stations






























Interactive Weather Map
Tropical Storm Tracking
New forecast layout! Learn more

10-Day Weather Forecast

Advertisements
Track Severe Weather on mobile